Terminal Aerodrome Forecast
Issued by NWS

Home | Current Version | Previous Version | Text Only | Print | Product List | Glossary On
Versions: 1 2 3 4 5 6 7 8 9 10 11 12 13 14 15 16 17
000
FTUS43 KAPX 080102 AAA
TAFAPN
TAF AMD
KAPN 080102Z 0801/0824 33007KT P6SM SKC
     FM080400 00000KT P6SM SKC
     FM081500 12007KT P6SM FEW040 SCT250=

USA.gov is the U.S. government's official web portal to all federal, state and local government web resources and services.